Terminal Aerodrome Forecast
Issued by NWS

Home | Current Version | Previous Version | Text Only | Print | Product List | Glossary On
Versions: 1 2 3 4 5 6 7 8 9 10 11 12 13 14 15 16 17 18 19 20 21 22 23 24 25 26 27 28 29 30 31
000
FTUS45 KLKN 040220 AAB
TAFEKO
TAF AMD
KEKO 040220Z 0402/0424 28007KT P6SM VCTS SCT100CB SCT250
      TEMPO 0402/0403 VRB20G35KT TSRA
     FM040400 VRB06KT P6SM SCT100 BKN200
     FM041000 VRB03KT P6SM SCT130 BKN180
     FM042200 24006KT P6SM -TSRA BKN070CB OVC100=

USA.gov is the U.S. government's official web portal to all federal, state and local government web resources and services.